全部
Freeway Airport (Kromdraai, Gauteng, South Africa) FAFW 天气
There is no TAF data available at FAFW. Showing TAF data for FAWB (13 mi S).
PRY终端机场天气预报(FAFW无数据)
| Date | Time (SAST) | Flight Rules | Wind Dir. | Speed | Type | Height AGL (ft) | Visibility | Remarks | ||||||
|---|---|---|---|---|---|---|---|---|---|---|---|---|---|---|
There is no METAR data available at FAFW. Showing METAR data for FAWB (13 mi S).
PRY近期METAR历史数据(FAFW无数据)
| Date | Time (SAST) | Flight Rules | Wind Dir. | Speed | Type | Height AGL (ft) | Visibility | Temp (°C) | Temp (°F) | Dew Point (°C) | Dew Point (°F) | Rel. Humid. | Pressure | Density Altitude | Remarks |
|---|---|---|---|---|---|---|---|---|---|---|---|---|---|---|---|
| gap in available data | |||||||||||||||
| 05-五月 | 03:00 | n/a | Calm | Missing | 17° | 62° | 14° | 57° | 82% | 1017 mb | 5,173 ft | ||||
| 05-五月 | 02:00 | n/a | 90° | 3 kt | Missing | 15° | 59° | 15° | 59° | 100% | 1017 mb | 4,933 ft | |||
| 05-五月 | 01:00 | n/a | 70° | 2 kt | Missing | 15° | 59° | 15° | 59° | 100% | 1017 mb | 4,933 ft | |||
| 05-五月 | 00:00 | n/a | 110° | 3 kt | Missing | 15° | 59° | 15° | 59° | 100% | 1018 mb | 4,904 ft | |||
| 04-五月 | 23:00 | n/a | 110° | 1 kt | Missing | 16° | 60° | 16° | 60° | 100% | 1018 mb | 5,024 ft | |||
| 04-五月 | 22:00 | n/a | 170° | 1 kt | Missing | 15° | 59° | 15° | 59° | 100% | 1019 mb | 4,874 ft | |||
| 04-五月 | 21:00 | n/a | 150° | 3 kt | Missing | 16° | 60° | 15° | 59° | 94% | 1019 mb | 4,994 ft | |||
| 04-五月 | 20:00 | n/a | 120° | 2 kt | Missing | 18° | 64° | 13° | 55° | 73% | 1019 mb | 5,234 ft | |||
| 04-五月 | 19:00 | n/a | 30° | 2 kt | Missing | 19° | 66° | 13° | 55° | 68% | 1018 mb | 5,384 ft | |||
| 04-五月 | 18:00 | n/a | Calm | Missing | 21° | 69° | 12° | 53° | 56% | 1018 mb | 5,624 ft | ||||
| 04-五月 | 17:00 | n/a | 320° | 4 kt | Missing | 24° | 75° | 11° | 51° | 44% | 1018 mb | 5,984 ft | |||
| 04-五月 | 16:00 | n/a | 310° | 5 kt | Missing | 27° | 80° | 10° | 50° | 34% | 1018 mb | 6,344 ft | |||
| 04-五月 | 15:00 | n/a | 330° | 7 kt | Missing | 27° | 80° | 11° | 51° | 37% | 1019 mb | 6,314 ft | |||
| 04-五月 | 14:00 | n/a | 330° | 7 kt | Missing | 27° | 80° | 10° | 50° | 34% | 1019 mb | 6,314 ft | |||
| 04-五月 | 13:00 | n/a | 330° | 6 kt | Missing | 26° | 78° | 12° | 53° | 42% | 1020 mb | 6,165 ft | |||
| 04-五月 | 12:00 | n/a | 360° | 4 kt | Missing | 25° | 77° | 13° | 55° | 47% | 1022 mb | 5,986 ft | |||
| 04-五月 | 11:00 | n/a | 290° | 3 kt | Missing | 23° | 73° | 15° | 59° | 61% | 1023 mb | 5,716 ft | |||
| 04-五月 | 10:00 | n/a | 340° | 3 kt | Missing | 22° | 71° | 15° | 59° | 65% | 1023 mb | 5,596 ft | |||
| 04-五月 | 09:00 | n/a | 70° | 3 kt | Missing | 20° | 68° | 17° | 62° | 83% | 1023 mb | 5,356 ft | |||
| 04-五月 | 08:00 | n/a | 110° | 2 kt | Missing | 18° | 64° | 16° | 60° | 88% | 1023 mb | 5,116 ft | |||
| 04-五月 | 07:00 | n/a | Calm | Missing | 13° | 55° | 13° | 55° | 100% | 1023 mb | 4,516 ft | ||||
| 04-五月 | 06:00 | n/a | Calm | Missing | 13° | 55° | 13° | 55° | 100% | 1022 mb | 4,546 ft | ||||
| 04-五月 | 05:00 | n/a | Calm | Missing | 14° | 57° | 13° | 55° | 94% | 1022 mb | 4,666 ft | ||||
| 04-五月 | 04:00 | n/a | Calm | Missing | 13° | 55° | 13° | 55° | 100% | 1022 mb | 4,546 ft | ||||
登录
| 您的浏览器不支持. 升级您的浏览器 |
